sensor_id;sensor_type;location;lat;lon;timestamp;P1;durP1;ratioP1;P2;durP2;ratioP2
17283;SDS011;8760;52.248;20.952;2022-07-23T00:00:10;12.05;;;9.77;;
17283;SDS011;8760;52.248;20.952;2022-07-23T00:02:37;10.75;;;9.45;;
17283;SDS011;8760;52.248;20.952;2022-07-23T00:05:04;10.55;;;9.45;;
17283;SDS011;8760;52.248;20.952;2022-07-23T00:07:31;14.73;;;9.70;;
17283;SDS011;8760;52.248;20.952;2022-07-23T00:09:59;10.20;;;9.07;;
17283;SDS011;8760;52.248;20.952;2022-07-23T00:12:26;10.18;;;9.20;;
17283;SDS011;8760;52.248;20.952;2022-07-23T00:14:53;10.55;;;9.13;;
17283;SDS011;8760;52.248;20.952;2022-07-23T00:17:19;9.82;;;8.48;;
17283;SDS011;8760;52.248;20.952;2022-07-23T00:19:46;9.60;;;8.57;;
17283;SDS011;8760;52.248;20.952;2022-07-23T00:22:13;12.75;;;9.40;;
17283;SDS011;8760;52.248;20.952;2022-07-23T00:24:40;12.50;;;10.05;;
17283;SDS011;8760;52.248;20.952;2022-07-23T00:27:08;10.35;;;9.25;;
17283;SDS011;8760;52.248;20.952;2022-07-23T00:29:35;9.88;;;8.80;;
17283;SDS011;8760;52.248;20.952;2022-07-23T00:32:02;12.40;;;9.38;;
17283;SDS011;8760;52.248;20.952;2022-07-23T00:34:29;12.93;;;10.45;;
17283;SDS011;8760;52.248;20.952;2022-07-23T00:36:56;11.45;;;9.20;;
17283;SDS011;8760;52.248;20.952;2022-07-23T00:39:23;10.88;;;9.75;;
17283;SDS011;8760;52.248;20.952;2022-07-23T00:41:50;11.25;;;9.93;;
17283;SDS011;8760;52.248;20.952;2022-07-23T00:44:19;13.05;;;11.27;;
17283;SDS011;8760;52.248;20.952;2022-07-23T00:46:48;10.82;;;9.70;;
17283;SDS011;8760;52.248;20.952;2022-07-23T00:49:18;12.57;;;10.25;;
17283;SDS011;8760;52.248;20.952;2022-07-23T00:51:45;11.18;;;10.02;;
17283;SDS011;8760;52.248;20.952;2022-07-23T00:54:12;13.02;;;10.07;;
17283;SDS011;8760;52.248;20.952;2022-07-23T00:56:38;14.00;;;11.13;;
17283;SDS011;8760;52.248;20.952;2022-07-23T00:59:07;17.02;;;10.73;;
17283;SDS011;8760;52.248;20.952;2022-07-23T01:01:35;11.57;;;10.43;;
17283;SDS011;8760;52.248;20.952;2022-07-23T01:04:02;15.18;;;10.57;;
17283;SDS011;8760;52.248;20.952;2022-07-23T01:06:29;14.80;;;10.35;;
17283;SDS011;8760;52.248;20.952;2022-07-23T01:08:59;12.45;;;10.93;;
17283;SDS011;8760;52.248;20.952;2022-07-23T01:11:26;13.43;;;10.48;;
17283;SDS011;8760;52.248;20.952;2022-07-23T01:13:54;14.70;;;9.90;;
17283;SDS011;8760;52.248;20.952;2022-07-23T01:16:20;12.30;;;10.40;;
17283;SDS011;8760;52.248;20.952;2022-07-23T01:18:48;14.07;;;10.90;;
17283;SDS011;8760;52.248;20.952;2022-07-23T01:21:15;11.43;;;10.23;;
17283;SDS011;8760;52.248;20.952;2022-07-23T01:23:46;12.20;;;10.43;;
17283;SDS011;8760;52.248;20.952;2022-07-23T01:26:12;13.60;;;10.50;;
17283;SDS011;8760;52.248;20.952;2022-07-23T01:28:42;11.52;;;10.30;;
17283;SDS011;8760;52.248;20.952;2022-07-23T01:31:09;15.20;;;10.23;;
17283;SDS011;8760;52.248;20.952;2022-07-23T01:33:35;15.00;;;10.30;;
17283;SDS011;8760;52.248;20.952;2022-07-23T01:36:02;14.82;;;10.30;;
17283;SDS011;8760;52.248;20.952;2022-07-23T01:38:29;13.60;;;10.30;;
17283;SDS011;8760;52.248;20.952;2022-07-23T01:40:57;10.95;;;9.55;;
17283;SDS011;8760;52.248;20.952;2022-07-23T01:43:24;14.48;;;10.70;;
17283;SDS011;8760;52.248;20.952;2022-07-23T01:45:51;11.32;;;10.15;;
17283;SDS011;8760;52.248;20.952;2022-07-23T01:48:17;11.30;;;9.90;;
17283;SDS011;8760;52.248;20.952;2022-07-23T01:50:45;14.30;;;9.75;;
17283;SDS011;8760;52.248;20.952;2022-07-23T01:53:12;15.07;;;9.70;;
17283;SDS011;8760;52.248;20.952;2022-07-23T01:55:39;11.48;;;10.27;;
17283;SDS011;8760;52.248;20.952;2022-07-23T01:58:07;13.98;;;10.57;;
17283;SDS011;8760;52.248;20.952;2022-07-23T02:00:34;12.80;;;9.98;;
17283;SDS011;8760;52.248;20.952;2022-07-23T02:03:01;13.35;;;10.60;;
17283;SDS011;8760;52.248;20.952;2022-07-23T02:05:29;12.75;;;10.38;;
17283;SDS011;8760;52.248;20.952;2022-07-23T02:07:57;12.30;;;11.02;;
17283;SDS011;8760;52.248;20.952;2022-07-23T02:10:23;12.35;;;10.73;;
17283;SDS011;8760;52.248;20.952;2022-07-23T02:12:50;11.80;;;10.63;;
17283;SDS011;8760;52.248;20.952;2022-07-23T02:15:18;12.43;;;11.07;;
17283;SDS011;8760;52.248;20.952;2022-07-23T02:17:45;13.90;;;10.93;;
17283;SDS011;8760;52.248;20.952;2022-07-23T02:20:12;13.38;;;11.70;;
17283;SDS011;8760;52.248;20.952;2022-07-23T02:22:39;13.80;;;10.75;;
17283;SDS011;8760;52.248;20.952;2022-07-23T02:25:07;13.13;;;10.98;;
17283;SDS011;8760;52.248;20.952;2022-07-23T02:27:34;15.68;;;11.80;;
17283;SDS011;8760;52.248;20.952;2022-07-23T02:30:02;13.48;;;11.63;;
17283;SDS011;8760;52.248;20.952;2022-07-23T02:32:31;14.63;;;11.70;;
17283;SDS011;8760;52.248;20.952;2022-07-23T02:34:58;13.68;;;11.95;;
17283;SDS011;8760;52.248;20.952;2022-07-23T02:37:25;13.43;;;11.73;;
17283;SDS011;8760;52.248;20.952;2022-07-23T02:39:52;12.35;;;11.05;;
17283;SDS011;8760;52.248;20.952;2022-07-23T02:42:19;12.55;;;11.30;;
17283;SDS011;8760;52.248;20.952;2022-07-23T02:44:46;15.25;;;11.65;;
17283;SDS011;8760;52.248;20.952;2022-07-23T02:47:15;18.75;;;11.57;;
17283;SDS011;8760;52.248;20.952;2022-07-23T02:49:43;12.38;;;11.07;;
17283;SDS011;8760;52.248;20.952;2022-07-23T02:52:10;13.30;;;11.90;;
17283;SDS011;8760;52.248;20.952;2022-07-23T02:54:37;16.45;;;12.18;;
17283;SDS011;8760;52.248;20.952;2022-07-23T02:57:04;12.90;;;11.63;;
17283;SDS011;8760;52.248;20.952;2022-07-23T02:59:31;16.23;;;11.73;;
17283;SDS011;8760;52.248;20.952;2022-07-23T03:01:57;13.85;;;12.30;;
17283;SDS011;8760;52.248;20.952;2022-07-23T03:04:24;13.57;;;12.25;;
17283;SDS011;8760;52.248;20.952;2022-07-23T03:06:52;15.50;;;12.05;;
17283;SDS011;8760;52.248;20.952;2022-07-23T03:09:19;13.13;;;11.50;;
17283;SDS011;8760;52.248;20.952;2022-07-23T03:11:46;14.43;;;11.68;;
17283;SDS011;8760;52.248;20.952;2022-07-23T03:14:12;13.95;;;12.45;;
17283;SDS011;8760;52.248;20.952;2022-07-23T03:16:41;16.27;;;12.23;;
17283;SDS011;8760;52.248;20.952;2022-07-23T03:19:08;13.25;;;11.82;;
17283;SDS011;8760;52.248;20.952;2022-07-23T03:21:34;14.32;;;11.68;;
17283;SDS011;8760;52.248;20.952;2022-07-23T03:24:06;14.07;;;12.52;;
17283;SDS011;8760;52.248;20.952;2022-07-23T03:26:33;15.05;;;11.95;;
17283;SDS011;8760;52.248;20.952;2022-07-23T03:29:00;16.98;;;11.68;;
17283;SDS011;8760;52.248;20.952;2022-07-23T03:31:28;16.20;;;12.32;;
17283;SDS011;8760;52.248;20.952;2022-07-23T03:33:55;15.35;;;11.80;;
17283;SDS011;8760;52.248;20.952;2022-07-23T03:36:22;16.70;;;12.40;;
17283;SDS011;8760;52.248;20.952;2022-07-23T03:38:48;15.52;;;11.65;;
17283;SDS011;8760;52.248;20.952;2022-07-23T03:41:17;15.85;;;12.23;;
17283;SDS011;8760;52.248;20.952;2022-07-23T03:43:43;12.57;;;11.23;;
17283;SDS011;8760;52.248;20.952;2022-07-23T03:46:10;15.40;;;11.80;;
17283;SDS011;8760;52.248;20.952;2022-07-23T03:48:37;13.13;;;11.65;;
17283;SDS011;8760;52.248;20.952;2022-07-23T03:51:04;13.23;;;11.82;;
17283;SDS011;8760;52.248;20.952;2022-07-23T03:53:32;16.27;;;12.20;;
17283;SDS011;8760;52.248;20.952;2022-07-23T03:55:59;14.80;;;12.07;;
17283;SDS011;8760;52.248;20.952;2022-07-23T03:58:27;14.43;;;11.90;;
17283;SDS011;8760;52.248;20.952;2022-07-23T04:00:54;13.63;;;12.02;;
17283;SDS011;8760;52.248;20.952;2022-07-23T04:03:21;12.95;;;11.40;;
17283;SDS011;8760;52.248;20.952;2022-07-23T04:05:47;13.50;;;11.48;;
17283;SDS011;8760;52.248;20.952;2022-07-23T04:08:14;14.30;;;11.55;;
17283;SDS011;8760;52.248;20.952;2022-07-23T04:10:41;13.45;;;12.02;;
17283;SDS011;8760;52.248;20.952;2022-07-23T04:13:08;13.70;;;12.20;;
17283;SDS011;8760;52.248;20.952;2022-07-23T04:15:36;14.80;;;13.15;;
17283;SDS011;8760;52.248;20.952;2022-07-23T04:18:02;14.82;;;12.00;;
17283;SDS011;8760;52.248;20.952;2022-07-23T04:20:29;14.90;;;11.68;;
17283;SDS011;8760;52.248;20.952;2022-07-23T04:22:56;13.82;;;11.32;;
17283;SDS011;8760;52.248;20.952;2022-07-23T04:25:23;12.73;;;11.20;;
17283;SDS011;8760;52.248;20.952;2022-07-23T04:27:49;14.00;;;11.63;;
17283;SDS011;8760;52.248;20.952;2022-07-23T04:30:16;16.25;;;12.60;;
17283;SDS011;8760;52.248;20.952;2022-07-23T04:32:44;14.75;;;13.18;;
17283;SDS011;8760;52.248;20.952;2022-07-23T04:35:11;13.48;;;12.07;;
17283;SDS011;8760;52.248;20.952;2022-07-23T04:37:38;15.20;;;12.38;;
17283;SDS011;8760;52.248;20.952;2022-07-23T04:40:05;17.02;;;12.65;;
17283;SDS011;8760;52.248;20.952;2022-07-23T04:42:32;15.05;;;12.70;;
17283;SDS011;8760;52.248;20.952;2022-07-23T04:44:59;15.40;;;12.30;;
17283;SDS011;8760;52.248;20.952;2022-07-23T04:47:26;12.70;;;11.60;;
17283;SDS011;8760;52.248;20.952;2022-07-23T04:49:54;15.57;;;12.70;;
17283;SDS011;8760;52.248;20.952;2022-07-23T04:52:20;13.73;;;12.27;;
17283;SDS011;8760;52.248;20.952;2022-07-23T04:54:47;14.88;;;12.68;;
17283;SDS011;8760;52.248;20.952;2022-07-23T04:57:14;17.63;;;13.23;;
17283;SDS011;8760;52.248;20.952;2022-07-23T04:59:41;15.95;;;12.73;;
17283;SDS011;8760;52.248;20.952;2022-07-23T05:02:08;16.75;;;12.45;;
17283;SDS011;8760;52.248;20.952;2022-07-23T05:04:34;14.45;;;12.68;;
17283;SDS011;8760;52.248;20.952;2022-07-23T05:07:02;14.50;;;12.00;;
17283;SDS011;8760;52.248;20.952;2022-07-23T05:09:29;15.93;;;11.98;;
17283;SDS011;8760;52.248;20.952;2022-07-23T05:11:57;13.35;;;12.05;;
17283;SDS011;8760;52.248;20.952;2022-07-23T05:14:23;13.38;;;11.63;;
17283;SDS011;8760;52.248;20.952;2022-07-23T05:16:50;14.18;;;12.38;;
17283;SDS011;8760;52.248;20.952;2022-07-23T05:19:17;16.02;;;11.63;;
17283;SDS011;8760;52.248;20.952;2022-07-23T05:21:44;13.88;;;12.13;;
17283;SDS011;8760;52.248;20.952;2022-07-23T05:24:12;11.75;;;10.65;;
17283;SDS011;8760;52.248;20.952;2022-07-23T05:26:38;14.20;;;11.65;;
17283;SDS011;8760;52.248;20.952;2022-07-23T05:29:05;13.60;;;11.60;;
17283;SDS011;8760;52.248;20.952;2022-07-23T05:31:32;13.88;;;11.80;;
17283;SDS011;8760;52.248;20.952;2022-07-23T05:33:59;11.98;;;10.77;;
17283;SDS011;8760;52.248;20.952;2022-07-23T05:36:25;13.75;;;11.35;;
17283;SDS011;8760;52.248;20.952;2022-07-23T05:38:52;12.48;;;10.95;;
17283;SDS011;8760;52.248;20.952;2022-07-23T05:41:20;13.30;;;11.07;;
17283;SDS011;8760;52.248;20.952;2022-07-23T05:43:47;12.98;;;11.57;;
17283;SDS011;8760;52.248;20.952;2022-07-23T05:46:13;16.23;;;11.27;;
17283;SDS011;8760;52.248;20.952;2022-07-23T05:48:40;19.50;;;11.73;;
17283;SDS011;8760;52.248;20.952;2022-07-23T05:51:07;11.90;;;10.70;;
17283;SDS011;8760;52.248;20.952;2022-07-23T05:53:34;12.30;;;10.35;;
17283;SDS011;8760;52.248;20.952;2022-07-23T05:56:01;11.57;;;10.40;;
17283;SDS011;8760;52.248;20.952;2022-07-23T05:58:29;12.63;;;11.23;;
17283;SDS011;8760;52.248;20.952;2022-07-23T06:00:56;14.07;;;10.48;;
17283;SDS011;8760;52.248;20.952;2022-07-23T06:03:23;10.68;;;9.63;;
17283;SDS011;8760;52.248;20.952;2022-07-23T06:05:50;10.93;;;9.90;;
17283;SDS011;8760;52.248;20.952;2022-07-23T06:08:17;11.18;;;9.88;;
17283;SDS011;8760;52.248;20.952;2022-07-23T06:10:44;11.55;;;9.73;;
17283;SDS011;8760;52.248;20.952;2022-07-23T06:13:11;13.30;;;10.68;;
17283;SDS011;8760;52.248;20.952;2022-07-23T06:15:39;14.75;;;11.45;;
17283;SDS011;8760;52.248;20.952;2022-07-23T06:18:05;12.43;;;10.45;;
17283;SDS011;8760;52.248;20.952;2022-07-23T06:20:32;12.57;;;10.93;;
17283;SDS011;8760;52.248;20.952;2022-07-23T06:22:59;10.77;;;9.77;;
17283;SDS011;8760;52.248;20.952;2022-07-23T06:25:26;12.48;;;9.45;;
17283;SDS011;8760;52.248;20.952;2022-07-23T06:27:53;10.23;;;9.23;;
17283;SDS011;8760;52.248;20.952;2022-07-23T06:30:20;9.80;;;8.68;;
17283;SDS011;8760;52.248;20.952;2022-07-23T06:32:48;9.57;;;8.45;;
17283;SDS011;8760;52.248;20.952;2022-07-23T06:35:15;9.80;;;8.90;;
17283;SDS011;8760;52.248;20.952;2022-07-23T06:37:42;10.13;;;9.23;;
17283;SDS011;8760;52.248;20.952;2022-07-23T06:40:09;9.35;;;8.25;;
17283;SDS011;8760;52.248;20.952;2022-07-23T06:42:37;9.02;;;8.23;;
17283;SDS011;8760;52.248;20.952;2022-07-23T06:45:05;10.60;;;9.50;;
17283;SDS011;8760;52.248;20.952;2022-07-23T06:47:33;9.43;;;8.30;;
17283;SDS011;8760;52.248;20.952;2022-07-23T06:50:01;8.90;;;8.00;;
17283;SDS011;8760;52.248;20.952;2022-07-23T06:52:28;11.90;;;8.60;;
17283;SDS011;8760;52.248;20.952;2022-07-23T06:54:55;9.38;;;8.52;;
17283;SDS011;8760;52.248;20.952;2022-07-23T06:57:21;8.98;;;7.82;;
17283;SDS011;8760;52.248;20.952;2022-07-23T06:59:50;9.48;;;8.00;;
17283;SDS011;8760;52.248;20.952;2022-07-23T07:02:17;9.43;;;8.63;;
17283;SDS011;8760;52.248;20.952;2022-07-23T07:04:44;10.68;;;9.65;;
17283;SDS011;8760;52.248;20.952;2022-07-23T07:07:12;10.68;;;9.38;;
17283;SDS011;8760;52.248;20.952;2022-07-23T07:09:38;8.90;;;7.75;;
17283;SDS011;8760;52.248;20.952;2022-07-23T07:12:05;8.63;;;7.80;;
17283;SDS011;8760;52.248;20.952;2022-07-23T07:14:32;9.40;;;7.68;;
17283;SDS011;8760;52.248;20.952;2022-07-23T07:16:59;11.07;;;9.90;;
17283;SDS011;8760;52.248;20.952;2022-07-23T07:19:26;10.50;;;8.20;;
17283;SDS011;8760;52.248;20.952;2022-07-23T07:21:53;9.05;;;8.25;;
17283;SDS011;8760;52.248;20.952;2022-07-23T07:24:21;8.60;;;7.78;;
17283;SDS011;8760;52.248;20.952;2022-07-23T07:26:47;8.18;;;7.47;;
17283;SDS011;8760;52.248;20.952;2022-07-23T07:29:14;8.90;;;7.55;;
17283;SDS011;8760;52.248;20.952;2022-07-23T07:31:41;8.60;;;7.70;;
17283;SDS011;8760;52.248;20.952;2022-07-23T07:34:08;8.48;;;7.13;;
17283;SDS011;8760;52.248;20.952;2022-07-23T07:36:35;8.23;;;7.40;;
17283;SDS011;8760;52.248;20.952;2022-07-23T07:39:02;10.70;;;7.93;;
17283;SDS011;8760;52.248;20.952;2022-07-23T07:41:30;7.78;;;7.07;;
17283;SDS011;8760;52.248;20.952;2022-07-23T07:43:57;8.40;;;7.68;;
17283;SDS011;8760;52.248;20.952;2022-07-23T07:46:24;7.70;;;6.90;;
17283;SDS011;8760;52.248;20.952;2022-07-23T07:48:52;10.30;;;8.02;;
17283;SDS011;8760;52.248;20.952;2022-07-23T07:51:19;9.88;;;8.45;;
17283;SDS011;8760;52.248;20.952;2022-07-23T07:53:46;8.02;;;7.22;;
17283;SDS011;8760;52.248;20.952;2022-07-23T07:56:13;8.25;;;7.45;;
17283;SDS011;8760;52.248;20.952;2022-07-23T07:58:41;8.02;;;7.30;;
17283;SDS011;8760;52.248;20.952;2022-07-23T08:01:08;8.30;;;7.50;;
17283;SDS011;8760;52.248;20.952;2022-07-23T08:03:34;8.98;;;7.70;;
17283;SDS011;8760;52.248;20.952;2022-07-23T08:06:01;9.15;;;8.35;;
17283;SDS011;8760;52.248;20.952;2022-07-23T08:08:28;8.65;;;7.72;;
17283;SDS011;8760;52.248;20.952;2022-07-23T08:10:55;8.00;;;7.18;;
17283;SDS011;8760;52.248;20.952;2022-07-23T08:13:21;8.70;;;7.82;;
17283;SDS011;8760;52.248;20.952;2022-07-23T08:15:49;8.65;;;7.72;;
17283;SDS011;8760;52.248;20.952;2022-07-23T08:18:18;8.15;;;7.45;;
17283;SDS011;8760;52.248;20.952;2022-07-23T08:20:45;10.85;;;7.72;;
17283;SDS011;8760;52.248;20.952;2022-07-23T08:23:12;8.20;;;7.45;;
17283;SDS011;8760;52.248;20.952;2022-07-23T08:25:40;8.25;;;7.45;;
17283;SDS011;8760;52.248;20.952;2022-07-23T08:28:09;8.63;;;7.82;;
17283;SDS011;8760;52.248;20.952;2022-07-23T08:30:37;8.52;;;7.82;;
17283;SDS011;8760;52.248;20.952;2022-07-23T08:33:07;8.98;;;7.30;;
17283;SDS011;8760;52.248;20.952;2022-07-23T08:35:38;7.15;;;6.45;;
17283;SDS011;8760;52.248;20.952;2022-07-23T08:38:06;7.65;;;6.93;;
17283;SDS011;8760;52.248;20.952;2022-07-23T08:40:37;9.48;;;6.93;;
17283;SDS011;8760;52.248;20.952;2022-07-23T08:43:06;9.07;;;7.70;;
17283;SDS011;8760;52.248;20.952;2022-07-23T08:45:35;7.93;;;7.15;;
17283;SDS011;8760;52.248;20.952;2022-07-23T08:48:03;7.95;;;7.15;;
17283;SDS011;8760;52.248;20.952;2022-07-23T08:50:34;8.35;;;7.50;;
17283;SDS011;8760;52.248;20.952;2022-07-23T08:53:03;8.88;;;7.60;;
17283;SDS011;8760;52.248;20.952;2022-07-23T08:55:32;8.07;;;7.25;;
17283;SDS011;8760;52.248;20.952;2022-07-23T08:57:59;8.68;;;7.32;;
17283;SDS011;8760;52.248;20.952;2022-07-23T09:00:27;7.60;;;6.90;;
17283;SDS011;8760;52.248;20.952;2022-07-23T09:02:54;7.93;;;6.95;;
17283;SDS011;8760;52.248;20.952;2022-07-23T09:05:22;7.53;;;6.90;;
17283;SDS011;8760;52.248;20.952;2022-07-23T09:08:05;9.80;;;7.70;;
17283;SDS011;8760;52.248;20.952;2022-07-23T09:10:42;8.50;;;7.55;;
17283;SDS011;8760;52.248;20.952;2022-07-23T09:13:24;9.68;;;7.28;;
17283;SDS011;8760;52.248;20.952;2022-07-23T09:16:00;7.30;;;6.70;;
17283;SDS011;8760;52.248;20.952;2022-07-23T09:18:30;8.15;;;6.93;;
17283;SDS011;8760;52.248;20.952;2022-07-23T09:21:07;8.50;;;7.70;;
17283;SDS011;8760;52.248;20.952;2022-07-23T09:23:39;7.43;;;6.72;;
17283;SDS011;8760;52.248;20.952;2022-07-23T09:26:21;8.52;;;7.65;;
17283;SDS011;8760;52.248;20.952;2022-07-23T09:28:50;8.73;;;7.07;;
17283;SDS011;8760;52.248;20.952;2022-07-23T09:31:19;7.82;;;6.82;;
17283;SDS011;8760;52.248;20.952;2022-07-23T09:33:46;7.38;;;6.72;;
17283;SDS011;8760;52.248;20.952;2022-07-23T09:36:14;7.18;;;6.57;;
17283;SDS011;8760;52.248;20.952;2022-07-23T09:38:47;7.40;;;6.72;;
17283;SDS011;8760;52.248;20.952;2022-07-23T09:41:15;7.65;;;6.88;;
17283;SDS011;8760;52.248;20.952;2022-07-23T09:43:42;8.75;;;6.15;;
17283;SDS011;8760;52.248;20.952;2022-07-23T09:46:19;9.93;;;6.70;;
17283;SDS011;8760;52.248;20.952;2022-07-23T09:48:49;7.55;;;6.20;;
17283;SDS011;8760;52.248;20.952;2022-07-23T09:51:18;7.50;;;6.90;;
17283;SDS011;8760;52.248;20.952;2022-07-23T09:53:52;7.95;;;6.10;;
17283;SDS011;8760;52.248;20.952;2022-07-23T09:56:19;7.38;;;6.55;;
17283;SDS011;8760;52.248;20.952;2022-07-23T09:58:47;7.85;;;6.22;;
17283;SDS011;8760;52.248;20.952;2022-07-23T10:01:16;9.18;;;6.10;;
17283;SDS011;8760;52.248;20.952;2022-07-23T10:03:44;9.38;;;6.22;;
17283;SDS011;8760;52.248;20.952;2022-07-23T10:06:12;6.88;;;5.95;;
17283;SDS011;8760;52.248;20.952;2022-07-23T10:08:41;6.43;;;5.72;;
17283;SDS011;8760;52.248;20.952;2022-07-23T10:11:10;10.93;;;9.13;;
17283;SDS011;8760;52.248;20.952;2022-07-23T10:13:39;6.88;;;5.97;;
17283;SDS011;8760;52.248;20.952;2022-07-23T10:16:19;7.22;;;6.20;;
17283;SDS011;8760;52.248;20.952;2022-07-23T10:18:46;6.82;;;6.20;;
17283;SDS011;8760;52.248;20.952;2022-07-23T10:21:16;7.40;;;6.03;;
17283;SDS011;8760;52.248;20.952;2022-07-23T10:23:51;7.25;;;6.55;;
17283;SDS011;8760;52.248;20.952;2022-07-23T10:26:41;8.93;;;6.65;;
17283;SDS011;8760;52.248;20.952;2022-07-23T10:29:13;7.40;;;5.97;;
17283;SDS011;8760;52.248;20.952;2022-07-23T10:31:52;8.43;;;5.93;;
17283;SDS011;8760;52.248;20.952;2022-07-23T10:34:25;7.45;;;6.18;;
17283;SDS011;8760;52.248;20.952;2022-07-23T10:37:04;6.57;;;5.90;;
17283;SDS011;8760;52.248;20.952;2022-07-23T10:39:40;6.60;;;5.88;;
17283;SDS011;8760;52.248;20.952;2022-07-23T10:42:07;6.80;;;5.75;;
17283;SDS011;8760;52.248;20.952;2022-07-23T10:44:38;7.43;;;6.22;;
17283;SDS011;8760;52.248;20.952;2022-07-23T10:47:07;9.48;;;5.95;;
17283;SDS011;8760;52.248;20.952;2022-07-23T10:49:49;7.15;;;6.35;;
17283;SDS011;8760;52.248;20.952;2022-07-23T10:52:17;6.40;;;5.90;;
17283;SDS011;8760;52.248;20.952;2022-07-23T10:54:52;11.43;;;5.95;;
17283;SDS011;8760;52.248;20.952;2022-07-23T10:57:21;6.72;;;5.60;;
17283;SDS011;8760;52.248;20.952;2022-07-23T11:02:43;13.07;;;6.20;;
17283;SDS011;8760;52.248;20.952;2022-07-23T11:05:12;9.32;;;6.20;;
17283;SDS011;8760;52.248;20.952;2022-07-23T11:10:41;6.72;;;5.88;;
17283;SDS011;8760;52.248;20.952;2022-07-23T11:13:29;6.95;;;5.80;;
17283;SDS011;8760;52.248;20.952;2022-07-23T11:16:08;10.38;;;6.07;;
17283;SDS011;8760;52.248;20.952;2022-07-23T11:21:41;6.55;;;5.70;;
17283;SDS011;8760;52.248;20.952;2022-07-23T11:24:09;11.10;;;6.25;;
17283;SDS011;8760;52.248;20.952;2022-07-23T11:26:42;7.50;;;6.13;;
17283;SDS011;8760;52.248;20.952;2022-07-23T11:32:06;7.20;;;5.88;;
17283;SDS011;8760;52.248;20.952;2022-07-23T11:34:35;6.55;;;6.03;;
17283;SDS011;8760;52.248;20.952;2022-07-23T11:37:05;9.88;;;6.07;;
17283;SDS011;8760;52.248;20.952;2022-07-23T11:39:34;6.28;;;5.68;;
17283;SDS011;8760;52.248;20.952;2022-07-23T11:42:03;7.85;;;6.43;;
17283;SDS011;8760;52.248;20.952;2022-07-23T11:44:32;8.32;;;6.68;;
17283;SDS011;8760;52.248;20.952;2022-07-23T11:47:00;6.95;;;6.35;;
17283;SDS011;8760;52.248;20.952;2022-07-23T11:49:28;7.75;;;6.57;;
17283;SDS011;8760;52.248;20.952;2022-07-23T11:52:02;6.90;;;6.22;;
17283;SDS011;8760;52.248;20.952;2022-07-23T11:54:30;8.23;;;6.60;;
17283;SDS011;8760;52.248;20.952;2022-07-23T11:56:57;11.18;;;7.05;;
17283;SDS011;8760;52.248;20.952;2022-07-23T11:59:26;7.40;;;6.70;;
17283;SDS011;8760;52.248;20.952;2022-07-23T12:01:57;8.52;;;6.55;;
17283;SDS011;8760;52.248;20.952;2022-07-23T12:04:28;7.13;;;6.53;;
17283;SDS011;8760;52.248;20.952;2022-07-23T12:07:03;7.13;;;6.03;;
17283;SDS011;8760;52.248;20.952;2022-07-23T12:09:48;8.00;;;6.55;;
17283;SDS011;8760;52.248;20.952;2022-07-23T12:12:14;7.00;;;6.30;;
17283;SDS011;8760;52.248;20.952;2022-07-23T12:14:48;6.80;;;6.10;;
17283;SDS011;8760;52.248;20.952;2022-07-23T12:17:15;8.07;;;6.97;;
17283;SDS011;8760;52.248;20.952;2022-07-23T12:19:42;8.15;;;7.00;;
17283;SDS011;8760;52.248;20.952;2022-07-23T12:22:10;7.28;;;6.68;;
17283;SDS011;8760;52.248;20.952;2022-07-23T12:27:20;10.13;;;6.65;;
17283;SDS011;8760;52.248;20.952;2022-07-23T12:29:48;8.02;;;6.70;;
17283;SDS011;8760;52.248;20.952;2022-07-23T12:32:17;7.75;;;6.93;;
17283;SDS011;8760;52.248;20.952;2022-07-23T12:34:45;7.55;;;6.85;;
17283;SDS011;8760;52.248;20.952;2022-07-23T12:37:25;7.22;;;6.53;;
17283;SDS011;8760;52.248;20.952;2022-07-23T12:39:57;9.60;;;6.50;;
17283;SDS011;8760;52.248;20.952;2022-07-23T12:42:24;8.40;;;6.25;;
17283;SDS011;8760;52.248;20.952;2022-07-23T12:45:05;7.72;;;6.40;;
17283;SDS011;8760;52.248;20.952;2022-07-23T12:50:36;9.20;;;6.90;;
17283;SDS011;8760;52.248;20.952;2022-07-23T12:53:12;6.65;;;5.95;;
17283;SDS011;8760;52.248;20.952;2022-07-23T12:55:42;8.38;;;6.97;;
17283;SDS011;8760;52.248;20.952;2022-07-23T12:58:11;7.00;;;6.32;;
17283;SDS011;8760;52.248;20.952;2022-07-23T13:00:55;8.25;;;6.57;;
17283;SDS011;8760;52.248;20.952;2022-07-23T13:03:25;7.30;;;6.60;;
17283;SDS011;8760;52.248;20.952;2022-07-23T13:05:53;8.40;;;6.97;;
17283;SDS011;8760;52.248;20.952;2022-07-23T13:08:20;7.55;;;6.47;;
17283;SDS011;8760;52.248;20.952;2022-07-23T13:10:48;8.20;;;6.72;;
17283;SDS011;8760;52.248;20.952;2022-07-23T13:13:16;6.65;;;6.00;;
17283;SDS011;8760;52.248;20.952;2022-07-23T13:15:45;7.32;;;6.63;;
17283;SDS011;8760;52.248;20.952;2022-07-23T13:18:14;7.38;;;6.68;;
17283;SDS011;8760;52.248;20.952;2022-07-23T13:20:41;7.35;;;6.68;;
17283;SDS011;8760;52.248;20.952;2022-07-23T13:23:08;8.55;;;6.43;;
17283;SDS011;8760;52.248;20.952;2022-07-23T13:25:35;8.00;;;6.78;;
17283;SDS011;8760;52.248;20.952;2022-07-23T13:28:02;8.65;;;7.10;;
17283;SDS011;8760;52.248;20.952;2022-07-23T13:30:29;7.57;;;6.90;;
17283;SDS011;8760;52.248;20.952;2022-07-23T13:32:56;7.82;;;6.65;;
17283;SDS011;8760;52.248;20.952;2022-07-23T13:35:24;9.02;;;7.10;;
17283;SDS011;8760;52.248;20.952;2022-07-23T13:37:51;8.05;;;6.63;;
17283;SDS011;8760;52.248;20.952;2022-07-23T13:40:18;8.07;;;6.60;;
17283;SDS011;8760;52.248;20.952;2022-07-23T13:42:45;7.53;;;6.25;;
17283;SDS011;8760;52.248;20.952;2022-07-23T13:45:12;7.45;;;6.75;;
17283;SDS011;8760;52.248;20.952;2022-07-23T13:47:39;7.68;;;6.65;;
17283;SDS011;8760;52.248;20.952;2022-07-23T13:50:06;7.45;;;6.63;;
17283;SDS011;8760;52.248;20.952;2022-07-23T13:52:34;8.13;;;6.78;;
17283;SDS011;8760;52.248;20.952;2022-07-23T13:55:01;8.63;;;6.78;;
17283;SDS011;8760;52.248;20.952;2022-07-23T13:57:29;7.65;;;6.95;;
17283;SDS011;8760;52.248;20.952;2022-07-23T13:59:56;8.00;;;7.20;;
17283;SDS011;8760;52.248;20.952;2022-07-23T14:02:23;7.57;;;6.85;;
17283;SDS011;8760;52.248;20.952;2022-07-23T14:04:50;8.70;;;7.45;;
17283;SDS011;8760;52.248;20.952;2022-07-23T14:07:17;10.82;;;7.72;;
17283;SDS011;8760;52.248;20.952;2022-07-23T14:09:46;8.00;;;7.20;;
17283;SDS011;8760;52.248;20.952;2022-07-23T14:12:13;8.20;;;7.43;;
17283;SDS011;8760;52.248;20.952;2022-07-23T14:14:40;7.95;;;7.20;;
17283;SDS011;8760;52.248;20.952;2022-07-23T14:17:08;8.77;;;7.88;;
17283;SDS011;8760;52.248;20.952;2022-07-23T14:19:35;8.55;;;7.38;;
17283;SDS011;8760;52.248;20.952;2022-07-23T14:22:02;9.20;;;8.00;;
17283;SDS011;8760;52.248;20.952;2022-07-23T14:24:29;10.95;;;7.18;;
17283;SDS011;8760;52.248;20.952;2022-07-23T14:26:57;8.18;;;7.30;;
17283;SDS011;8760;52.248;20.952;2022-07-23T14:29:27;8.50;;;7.70;;
17283;SDS011;8760;52.248;20.952;2022-07-23T14:31:54;8.25;;;7.45;;
17283;SDS011;8760;52.248;20.952;2022-07-23T14:34:21;9.15;;;7.93;;
17283;SDS011;8760;52.248;20.952;2022-07-23T14:36:48;14.85;;;5.97;;
17283;SDS011;8760;52.248;20.952;2022-07-23T14:39:15;24.42;;;6.22;;
17283;SDS011;8760;52.248;20.952;2022-07-23T14:41:42;29.95;;;6.65;;
17283;SDS011;8760;52.248;20.952;2022-07-23T14:44:10;20.48;;;5.88;;
17283;SDS011;8760;52.248;20.952;2022-07-23T14:46:37;15.15;;;5.53;;
17283;SDS011;8760;52.248;20.952;2022-07-23T14:49:04;16.83;;;6.55;;
17283;SDS011;8760;52.248;20.952;2022-07-23T14:51:31;8.60;;;6.18;;
17283;SDS011;8760;52.248;20.952;2022-07-23T14:53:58;12.55;;;5.78;;
17283;SDS011;8760;52.248;20.952;2022-07-23T14:56:24;10.88;;;5.32;;
17283;SDS011;8760;52.248;20.952;2022-07-23T14:58:51;10.43;;;4.70;;